createdAt,value
2019-05-18T00:00:22.191Z,0.00
2019-05-18T00:01:22.174Z,4.00
2019-05-18T00:02:22.154Z,4.00
2019-05-18T00:03:22.159Z,4.00
2019-05-18T00:04:22.133Z,4.00
2019-05-18T00:05:22.176Z,8.00
2019-05-18T00:06:22.117Z,4.00
2019-05-18T00:07:22.102Z,4.00
2019-05-18T00:08:22.108Z,4.00
2019-05-18T00:09:22.085Z,8.00
2019-05-18T00:10:22.074Z,4.00
2019-05-18T00:11:22.069Z,4.00
2019-05-18T00:12:22.049Z,8.00
2019-05-18T00:13:22.035Z,4.00
2019-05-18T00:14:22.039Z,8.00
2019-05-18T00:15:22.029Z,8.00
2019-05-18T00:16:22.075Z,8.00
2019-05-18T00:17:25.389Z,12.00
2019-05-18T00:18:21.995Z,8.00
2019-05-18T00:19:22.011Z,12.00
2019-05-18T00:20:21.978Z,12.00
2019-05-18T00:21:21.965Z,12.00
2019-05-18T00:22:21.964Z,12.00
2019-05-18T00:23:21.932Z,16.00
2019-05-18T00:24:21.947Z,16.00
2019-05-18T00:25:22.043Z,16.00
2019-05-18T00:26:28.879Z,16.00
2019-05-18T00:27:21.889Z,20.00
2019-05-18T00:28:21.877Z,20.00
2019-05-18T00:29:21.875Z,20.00
2019-05-18T00:30:21.861Z,20.00
2019-05-18T00:31:21.877Z,24.00
2019-05-18T00:32:21.832Z,24.00
2019-05-18T00:33:21.854Z,28.00
2019-05-18T00:34:21.817Z,28.00
2019-05-18T00:35:21.814Z,28.00
2019-05-18T00:36:21.807Z,32.00
2019-05-18T00:37:21.786Z,32.00
2019-05-18T00:38:21.882Z,36.00
2019-05-18T00:39:21.772Z,40.00
2019-05-18T00:40:21.754Z,40.00
2019-05-18T00:41:21.903Z,48.00
2019-05-18T00:42:21.830Z,48.00
2019-05-18T00:43:21.720Z,52.00
2019-05-18T00:44:21.714Z,56.00
2019-05-18T00:45:21.702Z,60.00
2019-05-18T00:46:21.725Z,68.00
2019-05-18T00:47:21.687Z,68.00
2019-05-18T00:48:21.677Z,72.00
2019-05-18T00:49:21.673Z,80.00
2019-05-18T00:50:21.714Z,84.00
2019-05-18T00:51:23.420Z,92.00
2019-05-18T00:52:21.631Z,96.00
2019-05-18T00:53:21.613Z,104.00
2019-05-18T00:54:21.653Z,112.00
2019-05-18T00:55:21.592Z,120.00
2019-05-18T00:56:21.670Z,128.00
2019-05-18T00:57:21.573Z,136.00
2019-05-18T00:58:28.542Z,144.00
2019-05-18T00:59:21.548Z,152.00
2019-05-18T01:00:21.585Z,160.00
2019-05-18T01:01:21.536Z,172.00
2019-05-18T01:02:21.523Z,184.00
2019-05-18T01:03:21.520Z,196.00
2019-05-18T01:04:21.504Z,208.00
2019-05-18T01:05:21.567Z,216.00
2019-05-18T01:06:21.489Z,228.00
2019-05-18T01:07:21.481Z,244.00
2019-05-18T01:08:21.502Z,256.00
2019-05-18T01:09:21.458Z,272.00
2019-05-18T01:10:21.435Z,280.00
2019-05-18T01:11:21.444Z,300.00
2019-05-18T01:12:21.406Z,312.00
2019-05-18T01:13:21.487Z,328.00
2019-05-18T01:14:21.404Z,344.00
2019-05-18T01:15:21.378Z,364.00
2019-05-18T01:16:21.369Z,380.00
2019-05-18T01:17:21.378Z,400.00
2019-05-18T01:18:21.352Z,416.00
2019-05-18T01:19:21.337Z,436.00
2019-05-18T01:20:21.333Z,460.00
2019-05-18T01:21:21.332Z,476.00
2019-05-18T01:22:21.339Z,500.00
2019-05-18T01:23:21.304Z,520.00
2019-05-18T01:24:21.282Z,544.00
2019-05-18T01:25:21.277Z,560.00
2019-05-18T01:26:21.268Z,588.00
2019-05-18T01:27:21.251Z,608.00
2019-05-18T01:28:21.281Z,632.00
2019-05-18T01:29:21.232Z,660.00
2019-05-18T01:30:28.199Z,680.00
2019-05-18T01:31:21.211Z,704.00
2019-05-18T01:32:21.197Z,732.00
2019-05-18T01:33:21.191Z,756.00
2019-05-18T01:34:21.186Z,780.00
2019-05-18T01:35:21.180Z,808.00
2019-05-18T01:36:21.153Z,836.00
2019-05-18T01:37:21.146Z,864.00
2019-05-18T01:38:21.135Z,888.00
2019-05-18T01:39:21.141Z,916.00
2019-05-18T01:40:21.110Z,944.00
2019-05-18T01:41:21.100Z,972.00
2019-05-18T01:42:21.089Z,996.00
2019-05-18T01:43:21.080Z,1024.00
2019-05-18T01:44:21.086Z,1052.00
2019-05-18T01:45:21.085Z,1080.00
2019-05-18T01:46:21.058Z,1108.00
2019-05-18T01:47:21.032Z,1136.00
2019-05-18T01:48:21.023Z,1164.00
2019-05-18T01:49:21.013Z,1192.00
2019-05-18T01:50:21.041Z,1220.00
2019-05-18T01:51:21.005Z,1252.00
2019-05-18T01:52:20.992Z,1276.00
2019-05-18T01:53:20.969Z,1304.00
2019-05-18T01:54:20.961Z,1332.00
2019-05-18T01:55:20.997Z,1360.00
2019-05-18T01:56:20.994Z,1388.00
2019-05-18T01:57:20.925Z,1416.00
2019-05-18T01:58:20.933Z,1444.00
2019-05-18T01:59:20.908Z,1468.00
2019-05-18T02:00:20.907Z,1500.00
2019-05-18T02:01:20.902Z,1524.00
2019-05-18T02:02:28.360Z,1548.00
2019-05-18T02:03:20.864Z,1580.00
2019-05-18T02:04:20.908Z,1604.00
2019-05-18T02:05:20.850Z,1632.00
2019-05-18T02:06:20.891Z,1656.00
2019-05-18T02:07:20.827Z,1684.00
2019-05-18T02:08:20.816Z,1708.00
2019-05-18T02:09:20.821Z,1736.00
2019-05-18T02:10:20.801Z,1756.00
2019-05-18T02:11:20.788Z,1784.00
2019-05-18T02:12:20.810Z,1808.00
2019-05-18T02:13:20.760Z,1832.00
2019-05-18T02:14:20.754Z,1856.00
2019-05-18T02:15:20.746Z,1880.00
2019-05-18T02:16:20.749Z,1904.00
2019-05-18T02:17:20.717Z,1928.00
2019-05-18T02:18:28.821Z,1952.00
2019-05-18T02:20:20.689Z,1996.00
2019-05-18T02:21:20.677Z,2016.00
2019-05-18T02:22:20.698Z,2044.00
2019-05-18T02:23:20.659Z,2064.00
2019-05-18T02:24:20.649Z,2084.00
2019-05-18T02:25:20.647Z,2108.00
2019-05-18T02:26:20.627Z,2132.00
2019-05-18T02:27:20.622Z,2148.00
2019-05-18T02:28:20.636Z,2172.00
2019-05-18T02:29:20.597Z,2192.00
2019-05-18T02:30:20.585Z,2212.00
2019-05-18T02:31:20.636Z,2236.00
2019-05-18T02:32:20.567Z,2260.00
2019-05-18T02:33:20.561Z,2276.00
2019-05-18T02:34:27.891Z,2296.00
2019-05-18T02:35:20.527Z,2320.00
2019-05-18T02:36:20.519Z,2340.00
2019-05-18T02:37:20.509Z,2360.00
2019-05-18T02:38:20.545Z,2380.00
2019-05-18T02:39:20.517Z,2400.00
2019-05-18T02:40:20.495Z,2424.00
2019-05-18T02:41:20.472Z,2440.00
2019-05-18T02:42:20.449Z,2464.00
2019-05-18T02:43:20.459Z,2488.00
2019-05-18T02:44:20.454Z,2504.00
2019-05-18T02:45:20.437Z,2532.00
2019-05-18T02:46:20.418Z,2552.00
2019-05-18T02:47:20.405Z,2576.00
2019-05-18T02:48:20.400Z,2600.00
2019-05-18T02:49:20.483Z,2624.00
2019-05-18T02:50:20.447Z,2648.00
2019-05-18T02:51:20.355Z,2672.00
2019-05-18T02:52:20.345Z,2692.00
2019-05-18T02:53:20.333Z,2712.00
2019-05-18T02:54:20.323Z,2732.00
2019-05-18T02:55:20.322Z,2752.00
2019-05-18T02:56:20.339Z,2772.00
2019-05-18T02:57:20.308Z,2792.00
2019-05-18T02:58:20.290Z,2808.00
2019-05-18T02:59:20.277Z,2828.00
2019-05-18T03:00:20.270Z,2840.00
2019-05-18T03:01:20.262Z,2860.00
2019-05-18T03:02:20.261Z,2876.00
2019-05-18T03:03:20.250Z,2892.00
2019-05-18T03:04:20.217Z,2912.00
2019-05-18T03:05:20.205Z,2928.00
2019-05-18T03:06:27.417Z,2948.00
2019-05-18T03:07:20.195Z,2960.00
2019-05-18T03:08:20.178Z,2972.00
2019-05-18T03:09:20.168Z,2984.00
2019-05-18T03:10:20.161Z,3004.00
2019-05-18T03:11:20.157Z,3016.00
2019-05-18T03:12:20.156Z,3028.00
2019-05-18T03:13:20.137Z,3048.00
2019-05-18T03:14:20.136Z,3056.00
2019-05-18T03:15:20.105Z,3076.00
2019-05-18T03:16:20.203Z,3088.00
2019-05-18T03:17:20.088Z,3096.00
2019-05-18T03:18:20.076Z,3112.00
2019-05-18T03:19:20.101Z,3120.00
2019-05-18T03:20:20.052Z,3132.00
2019-05-18T03:21:20.045Z,3148.00
2019-05-18T03:22:20.057Z,3156.00
2019-05-18T03:23:20.026Z,3168.00
2019-05-18T03:24:20.016Z,3184.00
2019-05-18T03:25:20.012Z,3192.00
2019-05-18T03:26:19.989Z,3200.00
2019-05-18T03:27:20.069Z,3208.00
2019-05-18T03:28:19.965Z,3220.00
2019-05-18T03:29:19.955Z,3228.00
2019-05-18T03:30:19.939Z,3240.00
2019-05-18T03:31:19.951Z,3252.00
2019-05-18T03:32:19.920Z,3260.00
2019-05-18T03:33:20.031Z,3272.00
2019-05-18T03:34:19.910Z,3280.00
2019-05-18T03:35:19.902Z,3292.00
2019-05-18T03:36:19.877Z,3300.00
2019-05-18T03:37:19.878Z,3312.00
2019-05-18T03:38:26.928Z,3320.00
2019-05-18T03:39:19.847Z,3328.00
2019-05-18T03:40:19.837Z,3340.00
2019-05-18T03:41:19.827Z,3348.00
2019-05-18T03:42:19.832Z,3356.00
2019-05-18T03:43:19.849Z,3364.00
2019-05-18T03:44:19.839Z,3376.00
2019-05-18T03:45:19.788Z,3388.00
2019-05-18T03:46:23.735Z,3392.00
2019-05-18T03:47:19.798Z,3400.00
2019-05-18T03:48:19.755Z,3408.00
2019-05-18T03:49:26.871Z,3420.00
2019-05-18T03:51:19.726Z,3440.00
2019-05-18T03:52:19.715Z,3444.00
2019-05-18T03:53:19.756Z,3452.00
2019-05-18T03:54:19.694Z,3460.00
2019-05-18T03:55:19.725Z,3468.00
2019-05-18T03:56:19.667Z,3476.00
2019-05-18T03:57:19.664Z,3484.00
2019-05-18T03:58:19.643Z,3492.00
2019-05-18T03:59:19.678Z,3496.00
2019-05-18T04:00:19.627Z,3504.00
2019-05-18T04:01:19.623Z,3508.00
2019-05-18T04:02:19.606Z,3520.00
2019-05-18T04:03:19.597Z,3528.00
2019-05-18T04:04:19.586Z,3536.00
2019-05-18T04:05:19.660Z,3536.00
2019-05-18T04:06:19.568Z,3544.00
2019-05-18T04:07:19.556Z,3548.00
2019-05-18T04:08:19.541Z,3556.00
2019-05-18T04:09:19.534Z,3564.00
2019-05-18T04:10:26.509Z,3568.00
2019-05-18T04:11:19.543Z,3576.00
2019-05-18T04:12:19.497Z,3580.00
2019-05-18T04:13:19.485Z,3584.00
2019-05-18T04:14:19.474Z,3592.00
2019-05-18T04:15:19.486Z,3600.00
2019-05-18T04:16:19.455Z,3604.00
2019-05-18T04:17:19.472Z,3608.00
2019-05-18T04:18:19.467Z,3612.00
2019-05-18T04:19:19.425Z,3620.00
2019-05-18T04:20:19.635Z,3628.00
2019-05-18T04:21:19.410Z,3632.00
2019-05-18T04:22:19.400Z,3636.00
2019-05-18T04:23:19.435Z,3640.00
2019-05-18T04:24:19.375Z,3648.00
2019-05-18T04:25:19.359Z,3652.00
2019-05-18T04:26:19.343Z,3656.00
2019-05-18T04:27:19.331Z,3660.00
2019-05-18T04:28:19.425Z,3664.00
2019-05-18T04:29:19.317Z,3668.00
2019-05-18T04:30:19.304Z,3676.00
2019-05-18T04:31:19.292Z,3680.00
2019-05-18T04:32:19.278Z,3680.00
2019-05-18T04:33:19.276Z,3684.00
2019-05-18T04:34:19.366Z,3688.00
2019-05-18T04:35:19.259Z,3692.00
2019-05-18T04:36:19.237Z,3700.00
2019-05-18T04:37:19.225Z,3704.00
2019-05-18T04:38:19.215Z,3704.00
2019-05-18T04:39:19.212Z,3708.00
2019-05-18T04:40:19.257Z,3712.00
2019-05-18T04:41:19.185Z,3720.00
2019-05-18T04:43:35.395Z,3732.00
2019-05-18T04:44:35.381Z,3732.00
2019-05-18T04:45:35.362Z,3740.00
2019-05-18T04:46:35.352Z,3740.00
2019-05-18T04:47:35.337Z,3744.00
2019-05-18T04:48:35.366Z,3752.00
2019-05-18T04:49:35.352Z,3756.00
2019-05-18T04:50:35.519Z,3760.00
2019-05-18T04:51:35.304Z,3764.00
2019-05-18T04:52:35.300Z,3768.00
2019-05-18T04:53:35.311Z,3772.00
2019-05-18T04:54:35.269Z,3776.00
2019-05-18T04:55:35.254Z,3780.00
2019-05-18T04:56:35.273Z,3784.00
2019-05-18T04:57:35.236Z,3788.00
2019-05-18T04:58:35.251Z,3792.00
2019-05-18T04:59:35.218Z,3796.00
2019-05-18T05:00:35.240Z,3800.00
2019-05-18T05:01:35.211Z,3808.00
2019-05-18T05:02:35.178Z,3812.00
2019-05-18T05:03:35.168Z,3816.00
2019-05-18T05:04:35.192Z,3820.00
2019-05-18T05:05:35.152Z,3828.00
2019-05-18T05:06:35.196Z,3828.00
2019-05-18T05:07:35.155Z,3828.00
2019-05-18T05:08:35.114Z,3836.00
2019-05-18T05:09:35.104Z,3840.00
2019-05-18T05:10:35.159Z,3844.00
2019-05-18T05:11:35.088Z,3856.00
2019-05-18T05:12:35.090Z,3852.00
2019-05-18T05:13:35.068Z,3860.00
2019-05-18T05:14:35.069Z,3860.00
2019-05-18T05:15:42.538Z,3860.00
2019-05-18T05:16:35.038Z,3868.00
2019-05-18T05:17:35.060Z,3868.00
2019-05-18T05:18:35.014Z,3876.00
2019-05-18T05:19:34.996Z,3884.00
2019-05-18T05:20:35.003Z,3888.00
2019-05-18T05:21:34.985Z,3892.00
2019-05-18T05:22:35.018Z,3896.00
2019-05-18T05:23:34.998Z,3900.00
2019-05-18T05:24:34.951Z,3904.00
2019-05-18T05:25:34.994Z,3908.00
2019-05-18T05:26:34.922Z,3912.00
2019-05-18T05:27:34.914Z,3916.00
2019-05-18T05:28:34.910Z,3920.00
2019-05-18T05:29:34.907Z,3928.00
2019-05-18T05:30:34.956Z,3932.00
2019-05-18T05:31:34.870Z,3936.00
2019-05-18T05:32:34.873Z,3940.00
2019-05-18T05:33:34.884Z,3944.00
2019-05-18T05:34:34.847Z,3948.00
2019-05-18T05:35:37.601Z,3956.00
2019-05-18T05:36:34.860Z,3960.00
2019-05-18T05:37:34.812Z,3960.00
2019-05-18T05:38:34.795Z,3968.00
2019-05-18T05:39:34.805Z,3972.00
2019-05-18T05:40:34.781Z,3976.00
2019-05-18T05:41:34.765Z,3976.00
2019-05-18T05:42:34.785Z,3980.00
2019-05-18T05:43:34.776Z,3988.00
2019-05-18T05:44:34.731Z,3988.00
2019-05-18T05:45:34.732Z,3992.00
2019-05-18T05:46:37.336Z,3996.00
2019-05-18T05:47:42.195Z,4004.00
2019-05-18T05:48:34.707Z,4004.00
2019-05-18T05:49:34.692Z,4004.00
2019-05-18T05:50:36.553Z,4020.00
2019-05-18T05:51:34.660Z,4020.00
2019-05-18T05:52:34.651Z,4024.00
2019-05-18T05:53:34.643Z,4032.00
2019-05-18T05:54:34.674Z,4040.00
2019-05-18T05:55:34.613Z,4044.00
2019-05-18T05:56:34.603Z,4048.00
2019-05-18T05:57:34.608Z,4052.00
2019-05-18T05:58:34.595Z,4056.00
2019-05-18T05:59:34.581Z,4064.00
2019-05-18T06:00:34.569Z,4068.00
2019-05-18T06:01:34.548Z,4076.00
2019-05-18T06:02:34.604Z,4076.00
2019-05-18T06:03:34.536Z,4080.00
2019-05-18T06:04:34.528Z,4084.00
2019-05-18T06:05:34.515Z,4092.00
2019-05-18T06:06:34.495Z,4096.00
2019-05-18T06:07:34.488Z,4100.00
2019-05-18T06:08:34.513Z,4104.00
2019-05-18T06:09:34.462Z,4108.00
2019-05-18T06:10:34.478Z,4116.00
2019-05-18T06:11:34.495Z,4120.00
2019-05-18T06:12:34.438Z,4120.00
2019-05-18T06:13:34.418Z,4128.00
2019-05-18T06:14:34.593Z,4132.00
2019-05-18T06:15:34.527Z,4136.00
2019-05-18T06:16:34.389Z,4140.00
2019-05-18T06:17:34.390Z,4148.00
2019-05-18T06:18:34.377Z,4152.00
2019-05-18T06:19:42.145Z,4160.00
2019-05-18T06:20:34.356Z,4164.00
2019-05-18T06:21:34.340Z,4168.00
2019-05-18T06:22:34.333Z,4176.00
2019-05-18T06:23:34.316Z,4180.00
2019-05-18T06:24:34.364Z,4184.00
2019-05-18T06:25:34.624Z,4188.00
2019-05-18T06:26:34.295Z,4200.00
2019-05-18T06:27:34.276Z,4204.00
2019-05-18T06:28:34.282Z,4204.00
2019-05-18T06:29:34.254Z,4208.00
2019-05-18T06:30:34.246Z,4212.00
2019-05-18T06:31:34.334Z,4216.00
2019-05-18T06:32:34.312Z,4228.00
2019-05-18T06:33:34.344Z,4240.00
2019-05-18T06:34:34.209Z,4244.00
2019-05-18T06:35:34.194Z,4252.00
2019-05-18T06:36:34.180Z,4260.00
2019-05-18T06:37:34.168Z,4264.00
2019-05-18T06:38:34.163Z,4268.00
2019-05-18T06:39:34.141Z,4264.00
2019-05-18T06:40:34.136Z,4268.00
2019-05-18T06:41:34.128Z,4272.00
2019-05-18T06:42:34.117Z,4280.00
2019-05-18T06:43:34.213Z,4280.00
2019-05-18T06:44:34.088Z,4280.00
2019-05-18T06:45:34.085Z,4284.00
2019-05-18T06:46:34.069Z,4288.00
2019-05-18T06:47:34.061Z,4292.00
2019-05-18T06:48:34.051Z,4296.00
2019-05-18T06:49:34.080Z,4300.00
2019-05-18T06:50:34.072Z,4312.00
2019-05-18T06:51:40.993Z,4312.00
2019-05-18T06:52:34.002Z,4324.00
2019-05-18T06:53:33.998Z,4328.00
2019-05-18T06:54:33.993Z,4328.00
2019-05-18T06:55:33.986Z,4332.00
2019-05-18T06:56:33.965Z,4332.00
2019-05-18T06:57:34.000Z,4336.00
2019-05-18T06:58:33.952Z,4340.00
2019-05-18T06:59:33.982Z,4344.00
2019-05-18T07:00:33.961Z,4344.00
2019-05-18T07:01:33.929Z,4348.00
2019-05-18T07:02:33.896Z,4344.00
2019-05-18T07:03:33.918Z,4352.00
2019-05-18T07:04:33.877Z,4360.00
2019-05-18T07:05:33.893Z,4364.00
2019-05-18T07:06:33.865Z,4364.00
2019-05-18T07:07:33.849Z,4376.00
2019-05-18T07:08:33.864Z,4384.00
2019-05-18T07:09:33.819Z,4376.00
2019-05-18T07:10:33.817Z,4384.00
2019-05-18T07:11:33.801Z,4392.00
2019-05-18T07:12:33.806Z,4440.00
2019-05-18T07:13:33.800Z,4404.00
2019-05-18T07:14:33.959Z,4404.00
2019-05-18T07:15:33.762Z,4412.00
2019-05-18T07:16:33.819Z,4404.00
2019-05-18T07:17:34.684Z,4364.00
2019-05-18T07:18:33.731Z,4424.00
2019-05-18T07:19:33.736Z,4428.00
2019-05-18T07:20:33.724Z,4440.00
2019-05-18T07:21:33.709Z,4448.00
2019-05-18T07:22:33.694Z,4448.00
2019-05-18T07:23:43.855Z,4460.00
2019-05-18T07:24:33.671Z,4468.00
2019-05-18T07:25:33.648Z,4472.00
2019-05-18T07:26:33.639Z,4480.00
2019-05-18T07:27:33.673Z,4488.00
2019-05-18T07:28:33.631Z,4504.00
2019-05-18T07:29:33.618Z,4520.00
2019-05-18T07:30:33.623Z,4528.00
2019-05-18T07:31:33.588Z,4528.00
2019-05-18T07:32:33.577Z,4512.00
2019-05-18T07:33:33.661Z,4508.00
2019-05-18T07:34:33.623Z,4516.00
2019-05-18T07:35:33.545Z,4540.00
2019-05-18T07:36:33.537Z,4532.00
2019-05-18T07:37:33.547Z,4532.00
2019-05-18T07:38:33.540Z,4540.00
2019-05-18T07:39:36.098Z,4548.00
2019-05-18T07:40:33.499Z,4556.00
2019-05-18T07:41:45.950Z,4568.00
2019-05-18T07:42:34.465Z,4564.00
2019-05-18T07:43:33.460Z,4560.00
2019-05-18T07:44:33.491Z,4564.00
2019-05-18T07:45:33.501Z,4596.00
2019-05-18T07:46:33.426Z,4596.00
2019-05-18T07:47:33.416Z,4584.00
2019-05-18T07:48:33.404Z,4580.00
2019-05-18T07:49:33.408Z,4592.00
2019-05-18T07:50:33.427Z,4588.00
2019-05-18T07:51:37.203Z,4592.00
2019-05-18T07:52:33.363Z,4592.00
2019-05-18T07:53:33.366Z,4600.00
2019-05-18T07:54:33.343Z,4596.00
2019-05-18T07:55:40.734Z,4600.00
2019-05-18T08:08:33.196Z,4632.00
2019-05-18T08:16:33.120Z,4648.00
2019-05-18T08:26:33.018Z,4680.00
2019-05-18T08:27:40.260Z,4688.00
2019-05-18T08:39:32.864Z,4748.00
2019-05-18T08:47:32.775Z,4780.00
2019-05-18T08:59:41.788Z,4840.00
2019-05-18T09:10:32.528Z,4896.00
2019-05-18T09:18:32.449Z,4936.00
2019-05-18T09:31:39.297Z,5008.00
2019-05-18T09:41:32.237Z,5060.00
2019-05-18T09:49:32.123Z,5088.00
2019-05-18T09:53:32.144Z,5112.00
2019-05-18T10:01:31.993Z,5152.00
2019-05-18T10:03:40.336Z,5156.00
2019-05-18T10:10:33.685Z,5192.00
2019-05-18T10:12:31.878Z,5200.00
2019-05-18T10:13:31.884Z,5208.00
2019-05-18T10:14:31.915Z,5212.00
2019-05-18T10:15:31.834Z,5212.00
2019-05-18T10:16:31.849Z,5212.00
2019-05-18T10:17:31.814Z,5228.00
2019-05-18T10:18:31.803Z,5232.00
2019-05-18T10:19:31.829Z,5236.00
2019-05-18T10:20:31.789Z,5244.00
2019-05-18T10:21:31.806Z,5248.00
2019-05-18T10:22:31.774Z,5252.00
2019-05-18T10:23:31.753Z,5260.00
2019-05-18T10:24:31.737Z,5268.00
2019-05-18T10:25:31.797Z,5264.00
2019-05-18T10:26:31.714Z,5276.00
2019-05-18T10:27:31.761Z,5280.00
2019-05-18T10:28:31.691Z,5288.00
2019-05-18T10:29:31.682Z,5292.00
2019-05-18T10:30:31.676Z,5284.00
2019-05-18T10:31:31.702Z,5304.00
2019-05-18T10:32:31.686Z,5312.00
2019-05-18T10:33:31.677Z,5320.00
2019-05-18T10:34:31.634Z,5292.00
2019-05-18T10:35:38.597Z,5328.00
2019-05-18T10:36:31.619Z,5332.00
2019-05-18T10:37:31.598Z,5336.00
2019-05-18T10:38:31.589Z,5336.00
2019-05-18T10:39:31.597Z,5344.00
2019-05-18T10:40:31.575Z,5348.00
2019-05-18T10:51:31.450Z,5400.00
2019-05-18T11:03:31.324Z,5464.00
2019-05-18T11:07:38.883Z,5476.00
2019-05-18T11:34:30.987Z,5604.00
2019-05-18T11:37:30.978Z,5608.00
2019-05-18T11:38:30.967Z,5612.00
2019-05-18T11:39:38.921Z,5616.00
2019-05-18T11:40:30.924Z,5620.00
2019-05-18T11:41:30.919Z,5620.00
2019-05-18T11:42:30.961Z,5628.00
2019-05-18T11:43:30.901Z,5632.00
2019-05-18T11:44:30.875Z,5632.00
2019-05-18T11:45:30.891Z,5632.00
2019-05-18T11:46:30.860Z,5640.00
2019-05-18T11:47:30.846Z,5648.00
2019-05-18T11:48:30.934Z,5656.00
2019-05-18T11:49:30.828Z,5656.00
2019-05-18T11:50:30.819Z,5656.00
2019-05-18T11:51:30.800Z,5664.00
2019-05-18T11:52:30.810Z,5664.00
2019-05-18T11:53:30.825Z,5672.00
2019-05-18T11:54:30.781Z,5676.00
2019-05-18T11:55:30.759Z,5676.00
2019-05-18T11:56:30.753Z,5680.00
2019-05-18T11:57:30.742Z,5680.00
2019-05-18T11:58:30.730Z,5680.00
2019-05-18T11:59:30.793Z,5688.00
2019-05-18T12:00:30.732Z,5688.00
2019-05-18T12:01:30.696Z,5692.00
2019-05-18T12:02:30.693Z,5692.00
2019-05-18T12:03:30.676Z,5692.00
2019-05-18T12:04:30.669Z,5696.00
2019-05-18T12:05:30.664Z,5700.00
2019-05-18T12:06:30.654Z,5700.00
2019-05-18T12:07:30.647Z,5704.00
2019-05-18T12:08:30.621Z,5704.00
2019-05-18T12:09:30.617Z,5708.00
2019-05-18T12:10:30.618Z,5708.00
2019-05-18T12:11:38.452Z,5708.00
2019-05-18T12:12:30.575Z,5716.00
2019-05-18T12:13:30.568Z,5712.00
2019-05-18T12:14:30.561Z,5708.00
2019-05-18T12:15:30.545Z,5716.00
2019-05-18T12:16:30.584Z,5720.00
2019-05-18T12:17:30.535Z,5712.00
2019-05-18T12:18:30.565Z,5712.00
2019-05-18T12:19:30.501Z,5712.00
2019-05-18T12:20:30.538Z,5712.00
2019-05-18T12:21:30.527Z,5716.00
2019-05-18T12:22:30.474Z,5708.00
2019-05-18T12:23:30.467Z,5708.00
2019-05-18T12:24:30.451Z,5704.00
2019-05-18T12:25:30.442Z,5704.00
2019-05-18T12:26:30.433Z,5708.00
2019-05-18T12:27:30.481Z,5708.00
2019-05-18T12:28:31.549Z,5704.00
2019-05-18T12:29:30.398Z,5708.00
2019-05-18T12:30:30.390Z,5704.00
2019-05-18T12:31:30.381Z,5704.00
2019-05-18T12:32:30.405Z,5708.00
2019-05-18T12:33:30.351Z,5708.00
2019-05-18T12:34:30.343Z,5704.00
2019-05-18T12:35:30.336Z,5704.00
2019-05-18T12:36:30.335Z,5700.00
2019-05-18T12:37:30.318Z,5692.00
2019-05-18T12:38:30.360Z,5688.00
2019-05-18T12:39:30.310Z,5688.00
2019-05-18T12:40:30.281Z,5684.00
2019-05-18T12:41:30.274Z,5684.00
2019-05-18T12:42:30.268Z,5684.00
2019-05-18T12:43:38.010Z,5660.00
2019-05-18T12:44:30.241Z,5684.00
2019-05-18T12:45:30.241Z,5684.00
2019-05-18T12:46:30.224Z,5688.00
2019-05-18T12:47:30.273Z,5688.00
2019-05-18T12:48:30.210Z,5680.00
2019-05-18T12:49:30.206Z,5684.00
2019-05-18T12:50:30.186Z,5688.00
2019-05-18T12:51:30.189Z,5692.00
2019-05-18T12:52:30.163Z,5684.00
2019-05-18T12:53:30.158Z,5684.00
2019-05-18T12:54:45.308Z,5680.00
2019-05-18T12:55:31.132Z,5672.00
2019-05-18T12:56:30.141Z,5668.00
2019-05-18T12:57:30.111Z,5664.00
2019-05-18T12:58:30.095Z,5660.00
2019-05-18T12:59:30.098Z,5656.00
2019-05-18T13:00:30.126Z,5660.00
2019-05-18T13:01:30.071Z,5660.00
2019-05-18T13:02:30.102Z,5660.00
2019-05-18T13:03:30.047Z,5660.00
2019-05-18T13:04:30.049Z,5656.00
2019-05-18T13:05:30.082Z,5656.00
2019-05-18T13:06:30.055Z,5640.00
2019-05-18T13:07:30.014Z,5648.00
2019-05-18T13:08:30.011Z,5656.00
2019-05-18T13:09:29.988Z,5652.00
2019-05-18T13:10:29.987Z,5656.00
2019-05-18T13:11:30.009Z,5664.00
2019-05-18T13:12:29.974Z,5664.00
2019-05-18T13:13:29.974Z,5660.00
2019-05-18T13:14:29.960Z,5660.00
2019-05-18T13:16:45.639Z,5648.00
2019-05-18T13:17:45.625Z,5636.00
2019-05-18T13:18:45.609Z,5640.00
2019-05-18T13:19:45.604Z,5636.00
2019-05-18T13:20:45.607Z,5632.00
2019-05-18T13:21:45.598Z,5632.00
2019-05-18T13:22:45.580Z,5632.00
2019-05-18T13:23:45.566Z,5624.00
2019-05-18T13:24:45.875Z,5624.00
2019-05-18T13:25:46.332Z,5620.00
2019-05-18T13:26:45.573Z,5624.00
2019-05-18T13:27:45.593Z,5616.00
2019-05-18T13:28:45.506Z,5604.00
2019-05-18T13:29:45.522Z,5604.00
2019-05-18T13:30:45.482Z,5596.00
2019-05-18T13:31:45.479Z,5596.00
2019-05-18T13:32:45.479Z,5592.00
2019-05-18T13:33:45.472Z,5592.00
2019-05-18T13:34:45.479Z,5584.00
2019-05-18T13:35:45.740Z,5580.00
2019-05-18T13:36:45.427Z,5576.00
2019-05-18T13:37:45.427Z,5572.00
2019-05-18T13:38:45.452Z,5568.00
2019-05-18T13:39:45.392Z,5568.00
2019-05-18T13:40:45.378Z,5560.00
2019-05-18T13:41:45.421Z,5560.00
2019-05-18T13:42:45.363Z,5556.00
2019-05-18T13:43:45.365Z,5560.00
2019-05-18T13:44:45.361Z,5556.00
2019-05-18T13:45:45.334Z,5556.00
2019-05-18T13:46:45.317Z,5556.00
2019-05-18T13:47:45.324Z,5552.00
2019-05-18T13:48:54.888Z,5544.00
2019-05-18T13:49:45.299Z,5540.00
2019-05-18T13:50:45.280Z,5540.00
2019-05-18T13:51:45.268Z,5532.00
2019-05-18T13:52:45.263Z,5532.00
2019-05-18T13:53:45.256Z,5528.00
2019-05-18T13:55:01.178Z,5516.00
2019-05-18T13:55:46.265Z,5516.00
2019-05-18T13:56:45.228Z,5508.00
2019-05-18T13:57:45.209Z,5508.00
2019-05-18T13:58:45.213Z,5504.00
2019-05-18T13:59:45.198Z,5492.00
2019-05-18T14:00:45.201Z,5496.00
2019-05-18T14:01:45.180Z,5496.00
2019-05-18T14:02:45.165Z,5492.00
2019-05-18T14:03:45.169Z,5484.00
2019-05-18T14:04:45.135Z,5476.00
2019-05-18T14:05:45.160Z,5464.00
2019-05-18T14:06:45.132Z,5464.00
2019-05-18T14:07:45.108Z,5476.00
2019-05-18T14:08:45.093Z,5508.00
2019-05-18T14:09:45.100Z,5512.00
2019-05-18T14:10:45.204Z,5512.00
2019-05-18T14:11:45.076Z,5516.00
2019-05-18T14:12:45.057Z,5524.00
2019-05-18T14:13:45.046Z,5524.00
2019-05-18T14:14:45.031Z,5536.00
2019-05-18T14:15:45.037Z,5528.00
2019-05-18T14:16:45.083Z,5520.00
2019-05-18T14:17:45.021Z,5516.00
2019-05-18T14:18:45.029Z,5516.00
2019-05-18T14:19:44.982Z,5512.00
2019-05-18T14:21:44.961Z,5504.00
2019-05-18T14:22:45.020Z,5496.00
2019-05-18T14:23:44.938Z,5488.00
2019-05-18T14:24:44.926Z,5484.00
2019-05-18T14:25:46.229Z,5472.00
2019-05-18T14:26:44.912Z,5468.00
2019-05-18T14:27:44.924Z,5456.00
2019-05-18T14:28:44.904Z,5452.00
2019-05-18T14:29:44.881Z,5440.00
2019-05-18T14:30:44.885Z,5432.00
2019-05-18T14:31:44.883Z,5424.00
2019-05-18T14:32:44.850Z,5416.00
2019-05-18T14:33:44.855Z,5408.00
2019-05-18T14:34:44.830Z,5408.00
2019-05-18T14:35:44.813Z,5400.00
2019-05-18T14:36:44.813Z,5388.00
2019-05-18T14:37:44.801Z,5384.00
2019-05-18T14:38:44.824Z,5372.00
2019-05-18T14:39:44.777Z,5368.00
2019-05-18T14:40:44.816Z,5356.00
2019-05-18T14:41:44.755Z,5352.00
2019-05-18T14:42:44.752Z,5344.00
2019-05-18T14:43:44.737Z,5336.00
2019-05-18T14:44:44.774Z,5328.00
2019-05-18T14:45:44.713Z,5320.00
2019-05-18T14:46:44.712Z,5296.00
2019-05-18T14:47:44.691Z,5284.00
2019-05-18T14:48:44.691Z,5284.00
2019-05-18T14:49:44.699Z,5276.00
2019-05-18T14:50:44.667Z,5264.00
2019-05-18T14:51:44.661Z,5260.00
2019-05-18T14:52:52.930Z,5248.00
2019-05-18T14:53:44.642Z,5236.00
2019-05-18T14:54:44.709Z,5228.00
2019-05-18T14:55:44.618Z,5224.00
2019-05-18T14:56:44.599Z,5212.00
2019-05-18T14:57:44.599Z,5196.00
2019-05-18T14:58:44.580Z,5188.00
2019-05-18T14:59:44.645Z,5180.00
2019-05-18T15:00:44.590Z,5172.00
2019-05-18T15:01:44.548Z,5164.00
2019-05-18T15:02:44.547Z,5156.00
2019-05-18T15:03:44.693Z,5148.00
2019-05-18T15:04:44.520Z,5136.00
2019-05-18T15:05:44.551Z,5124.00
2019-05-18T15:06:44.492Z,5116.00
2019-05-18T15:07:44.488Z,5104.00
2019-05-18T15:08:44.552Z,5084.00